Time;durP1;ratioP1;P1;durP2;ratioP2;P2;SDS_P1;SDS_P2;PMS_P1;PMS_P2;Temp;Humidity;BMP_temperature;BMP_pressure;BME280_temperature;BME280_humidity;BME280_pressure;Samples;Min_cycle;Max_cycle;Signal;HPM_P1;HPM_P2
2022/03/18 00:02:21;;;;;;;;;;;;;;;9.69;42.30;101397.84;4484707;31;32063;-65
2022/03/18 00:04:49;;;;;;;;;;;;;;;10.26;40.75;101399.69;4484254;31;34242;-64
2022/03/18 00:07:17;;;;;;;;;;;;;;;10.53;39.62;101406.47;4486760;31;34088;-62
2022/03/18 00:09:45;;;;;;;;;;;;;;;10.40;40.35;101407.09;4483841;31;34593;-64
2022/03/18 00:12:13;;;;;;;;;;;;;;;10.23;40.46;101412.31;4488653;31;34440;-62
2022/03/18 00:14:40;;;;;;;;;;;;;;;9.93;41.15;101407.44;4499148;31;34996;-61
2022/03/18 00:17:08;;;;;;;;;;;;;;;9.92;40.96;101412.84;4489499;31;34582;-61
2022/03/18 00:19:36;;;;;;;;;;;;;;;9.84;41.31;101412.34;4488740;31;34053;-64
2022/03/18 00:22:05;;;;;;;;;;;;;;;9.67;41.96;101408.62;4485582;31;33302;-61
2022/03/18 00:24:33;;;;;;;;;;;;;;;9.73;41.88;101408.34;4487329;31;34206;-64
2022/03/18 00:27:00;;;;;;;;;;;;;;;9.18;43.25;101416.13;4486724;31;34013;-63
2022/03/18 00:29:28;;;;;;;;;;;;;;;9.19;42.95;101419.66;4491201;31;34350;-64
2022/03/18 00:31:56;;;;;;;;;;;;;;;9.21;42.33;101421.31;4485040;31;32193;-65
2022/03/18 00:34:25;;;;;;;;;;;;;;;9.59;40.80;101420.59;4488030;31;34735;-64
2022/03/18 00:36:55;;;;;;;;;;;;;;;9.26;42.24;101435.34;4489755;31;34048;-64
2022/03/18 00:39:22;;;;;;;;;;;;;;;9.00;42.62;101427.56;4491320;31;33309;-64
2022/03/18 00:41:50;;;;;;;;;;;;;;;9.40;42.23;101420.50;4486527;31;33330;-63
2022/03/18 00:44:19;;;;;;;;;;;;;;;9.27;42.50;101428.19;4490555;31;33088;-61
2022/03/18 00:46:46;;;;;;;;;;;;;;;9.76;40.74;101434.09;4490157;31;32368;-63
2022/03/18 00:52:06;;;;;;;;;;;;;;;9.67;40.97;101427.34;4488331;31;33554;-61
2022/03/18 00:54:35;;;;;;;;;;;;;;;9.71;41.00;101430.75;4487223;31;32818;-62
2022/03/18 00:57:03;;;;;;;;;;;;;;;9.60;41.29;101428.56;4485928;31;33149;-63
2022/03/18 00:59:31;;;;;;;;;;;;;;;9.71;41.28;101426.25;4481101;31;34993;-64
2022/03/18 01:01:59;;;;;;;;;;;;;;;9.30;42.67;101420.91;4485107;31;33283;-64
2022/03/18 01:04:28;;;;;;;;;;;;;;;9.20;42.55;101432.94;4491139;31;32995;-63
2022/03/18 01:06:56;;;;;;;;;;;;;;;9.45;41.12;101431.88;4489733;31;34545;-62
2022/03/18 01:09:25;;;;;;;;;;;;;;;9.49;40.89;101433.50;4484609;31;34029;-64
2022/03/18 01:11:53;;;;;;;;;;;;;;;9.31;41.15;101438.69;4487246;31;33270;-62
2022/03/18 01:14:20;;;;;;;;;;;;;;;9.34;41.17;101435.00;4489875;31;35222;-62
2022/03/18 01:16:48;;;;;;;;;;;;;;;9.30;41.23;101436.06;4488188;31;34443;-64
2022/03/18 01:19:18;;;;;;;;;;;;;;;9.28;41.17;101432.63;4493878;31;33304;-62
2022/03/18 01:21:45;;;;;;;;;;;;;;;9.16;41.86;101439.34;4490265;31;34379;-63
2022/03/18 01:24:14;;;;;;;;;;;;;;;9.21;41.91;101441.81;4490847;31;33052;-62
2022/03/18 01:26:41;;;;;;;;;;;;;;;8.95;42.99;101445.56;4487342;31;34044;-63
2022/03/18 01:29:09;;;;;;;;;;;;;;;8.83;43.19;101439.81;4489927;31;34050;-61
2022/03/18 01:31:37;;;;;;;;;;;;;;;9.10;42.04;101440.47;4487823;31;33100;-62
2022/03/18 01:34:05;;;;;;;;;;;;;;;9.19;41.44;101436.53;4485240;31;32988;-62
2022/03/18 01:36:32;;;;;;;;;;;;;;;9.08;42.70;101436.09;4486346;31;32058;-61
2022/03/18 01:38:59;;;;;;;;;;;;;;;9.13;42.32;101439.47;4488172;31;33965;-64
2022/03/18 01:41:27;;;;;;;;;;;;;;;9.04;42.01;101446.06;4484173;31;33252;-64
2022/03/18 01:43:55;;;;;;;;;;;;;;;8.91;42.37;101441.28;4487154;31;33616;-61
2022/03/18 01:46:26;;;;;;;;;;;;;;;8.98;42.04;101445.44;4488376;31;34346;-61
2022/03/18 01:48:54;;;;;;;;;;;;;;;9.23;41.54;101446.16;4489155;31;35229;-62
2022/03/18 01:51:22;;;;;;;;;;;;;;;9.25;41.90;101451.44;4494386;31;32183;-62
2022/03/18 01:54:44;;;;;;;;;;;;;;;9.23;41.87;101455.97;4488463;31;35197;-63
2022/03/18 01:56:37;;;;;;;;;;;;;;;9.14;41.71;101459.03;4475481;31;34358;-63
2022/03/18 01:59:05;;;;;;;;;;;;;;;8.96;42.26;101460.69;4486050;31;33993;-60
2022/03/18 02:01:33;;;;;;;;;;;;;;;9.14;42.56;101449.22;4493099;31;33296;-61
2022/03/18 02:04:01;;;;;;;;;;;;;;;9.25;42.04;101449.66;4476804;31;33207;-61
2022/03/18 02:06:33;;;;;;;;;;;;;;;9.17;42.47;101456.22;4484871;31;33877;-60
2022/03/18 02:09:01;;;;;;;;;;;;;;;9.23;41.90;101456.84;4485774;31;34627;-63
2022/03/18 02:11:28;;;;;;;;;;;;;;;9.14;42.08;101456.34;4488727;31;31992;-61
2022/03/18 02:13:59;;;;;;;;;;;;;;;9.27;40.68;101457.56;4483513;31;34105;-61
2022/03/18 02:16:27;;;;;;;;;;;;;;;8.97;41.32;101455.25;4495342;31;35464;-63
2022/03/18 02:18:54;;;;;;;;;;;;;;;9.14;40.45;101459.03;4479611;31;34148;-60
2022/03/18 02:21:22;;;;;;;;;;;;;;;8.60;40.48;101469.19;4484393;31;33209;-62
2022/03/18 02:23:50;;;;;;;;;;;;;;;8.93;40.06;101474.16;4475284;31;34169;-61
2022/03/18 02:26:18;;;;;;;;;;;;;;;8.99;40.31;101480.09;4491437;31;35131;-60
2022/03/18 02:28:45;;;;;;;;;;;;;;;8.74;41.51;101474.88;4486425;31;34010;-61
2022/03/18 02:31:13;;;;;;;;;;;;;;;8.88;41.00;101481.47;4493839;31;34418;-62
2022/03/18 02:33:41;;;;;;;;;;;;;;;8.87;41.26;101485.94;4484907;31;33072;-62
2022/03/18 02:36:11;;;;;;;;;;;;;;;8.85;41.32;101485.13;4484694;31;34423;-63
2022/03/18 02:38:44;;;;;;;;;;;;;;;8.57;41.80;101486.22;4484691;31;33744;-62
2022/03/18 02:41:12;;;;;;;;;;;;;;;8.65;41.81;101490.38;4482158;31;32540;-63
2022/03/18 02:43:40;;;;;;;;;;;;;;;8.79;41.38;101494.22;4486908;31;33320;-62
2022/03/18 02:46:10;;;;;;;;;;;;;;;8.85;41.55;101493.12;4480979;31;34356;-61
2022/03/18 02:48:39;;;;;;;;;;;;;;;8.93;41.16;101498.19;4481640;31;32624;-64
2022/03/18 02:51:08;;;;;;;;;;;;;;;8.70;41.92;101494.63;4483283;31;33180;-63
2022/03/18 02:53:37;;;;;;;;;;;;;;;8.63;42.20;101494.00;4483397;31;34042;-63
2022/03/18 02:56:07;;;;;;;;;;;;;;;7.72;46.71;101500.00;4493382;31;34174;-63
2022/03/18 02:58:37;;;;;;;;;;;;;;;8.40;44.28;101508.19;4470372;32;35513;-62
2022/03/18 03:01:07;;;;;;;;;;;;;;;8.37;44.20;101504.75;4489075;31;33526;-62
2022/03/18 03:03:36;;;;;;;;;;;;;;;8.28;44.98;101508.66;4482797;31;33836;-62
2022/03/18 03:08:54;;;;;;;;;;;;;;;8.48;44.24;101523.94;4488523;31;35293;-62
2022/03/18 03:11:23;;;;;;;;;;;;;;;8.95;42.62;101523.00;4484679;31;33147;-61
2022/03/18 03:13:51;;;;;;;;;;;;;;;9.07;41.65;101526.06;4484972;31;33972;-62
2022/03/18 03:16:20;;;;;;;;;;;;;;;9.13;41.12;101527.63;4482349;31;34248;-61
2022/03/18 03:18:49;;;;;;;;;;;;;;;8.92;41.63;101532.00;4491548;31;33750;-61
2022/03/18 03:21:18;;;;;;;;;;;;;;;9.00;41.70;101535.25;4486939;31;33163;-63
2022/03/18 03:23:47;;;;;;;;;;;;;;;9.10;41.32;101535.75;4482417;31;34022;-67
2022/03/18 03:26:22;;;;;;;;;;;;;;;8.89;42.49;101531.25;4485394;31;32131;-62
2022/03/18 03:28:50;;;;;;;;;;;;;;;8.88;42.35;101538.41;4484150;31;33960;-63
2022/03/18 03:31:19;;;;;;;;;;;;;;;8.58;42.86;101548.47;4487584;31;33125;-62
2022/03/18 03:33:48;;;;;;;;;;;;;;;8.84;42.64;101548.34;4485103;31;34282;-63
2022/03/18 03:36:16;;;;;;;;;;;;;;;8.60;42.37;101558.19;4484242;31;33588;-65
2022/03/18 03:38:44;;;;;;;;;;;;;;;8.43;42.07;101559.72;4490041;31;34610;-62
2022/03/18 03:41:13;;;;;;;;;;;;;;;8.92;41.01;101556.03;4492627;31;33243;-63
2022/03/18 03:43:42;;;;;;;;;;;;;;;8.66;41.12;101574.88;4482823;31;33737;-63
2022/03/18 03:46:10;;;;;;;;;;;;;;;8.64;40.59;101566.94;4483956;31;34317;-63
2022/03/18 03:48:39;;;;;;;;;;;;;;;8.86;39.43;101573.19;4481101;31;34420;-62
2022/03/18 03:51:07;;;;;;;;;;;;;;;8.80;39.36;101567.22;4482291;31;33634;-63
2022/03/18 03:53:35;;;;;;;;;;;;;;;8.39;39.61;101585.66;4488527;31;34235;-63
2022/03/18 03:56:03;;;;;;;;;;;;;;;7.96;38.95;101581.81;4486129;31;34332;-62
2022/03/18 03:58:32;;;;;;;;;;;;;;;8.53;38.76;101593.13;4488245;31;33931;-64
2022/03/18 04:01:00;;;;;;;;;;;;;;;8.67;38.57;101580.16;4492242;31;33360;-63
2022/03/18 04:03:29;;;;;;;;;;;;;;;8.75;37.83;101591.41;4490514;31;34950;-63
2022/03/18 04:05:58;;;;;;;;;;;;;;;8.24;38.14;101596.84;4483216;31;32961;-63
2022/03/18 04:08:25;;;;;;;;;;;;;;;7.73;38.91;101605.69;4483374;31;32848;-63
2022/03/18 04:10:57;;;;;;;;;;;;;;;6.88;40.10;101595.06;4481617;31;34320;-64
2022/03/18 04:13:30;;;;;;;;;;;;;;;7.69;39.11;101599.59;4482000;31;34044;-63
2022/03/18 04:15:58;;;;;;;;;;;;;;;8.44;37.53;101607.69;4481677;31;34027;-64
2022/03/18 04:18:27;;;;;;;;;;;;;;;8.48;36.47;101609.34;4487144;31;34064;-64
2022/03/18 04:20:55;;;;;;;;;;;;;;;9.06;36.49;101601.78;4483727;31;33424;-63
2022/03/18 04:23:25;;;;;;;;;;;;;;;9.18;35.08;101605.78;4487476;31;32673;-63
2022/03/18 04:25:54;;;;;;;;;;;;;;;9.03;35.49;101607.25;4484113;31;35606;-64
2022/03/18 04:28:22;;;;;;;;;;;;;;;9.56;34.49;101609.56;4482013;31;35345;-61
2022/03/18 04:30:51;;;;;;;;;;;;;;;8.43;35.94;101613.09;4484604;31;33140;-62
2022/03/18 04:33:20;;;;;;;;;;;;;;;8.09;36.27;101615.12;4487906;31;35364;-62
2022/03/18 04:35:48;;;;;;;;;;;;;;;9.15;34.78;101619.28;4478081;31;34321;-62
2022/03/18 04:38:16;;;;;;;;;;;;;;;8.88;34.25;101621.19;4484071;31;34338;-63
2022/03/18 04:40:44;;;;;;;;;;;;;;;8.31;35.84;101625.88;4486357;31;33055;-63
2022/03/18 04:43:13;;;;;;;;;;;;;;;8.08;35.15;101625.84;4488443;31;34185;-62
2022/03/18 04:45:41;;;;;;;;;;;;;;;8.70;35.05;101632.53;4492203;31;35128;-61
2022/03/18 04:48:09;;;;;;;;;;;;;;;7.08;36.48;101637.06;4484998;31;35090;-62
2022/03/18 04:50:37;;;;;;;;;;;;;;;7.92;35.91;101639.69;4491610;31;33395;-62
2022/03/18 04:53:05;;;;;;;;;;;;;;;8.74;34.61;101644.88;4491226;31;33673;-61
2022/03/18 04:55:34;;;;;;;;;;;;;;;8.70;34.14;101646.78;4484659;31;34313;-63
2022/03/18 04:58:05;;;;;;;;;;;;;;;8.33;34.56;101649.88;4482935;31;34783;-62
2022/03/18 05:00:36;;;;;;;;;;;;;;;9.12;33.87;101655.91;4483549;31;33140;-62
2022/03/18 05:03:04;;;;;;;;;;;;;;;9.05;33.32;101652.59;4496449;31;33871;-63
2022/03/18 05:05:32;;;;;;;;;;;;;;;9.15;33.24;101664.69;4484196;31;35497;-63
2022/03/18 05:08:01;;;;;;;;;;;;;;;8.52;33.98;101672.34;4491430;31;34319;-63
2022/03/18 05:10:30;;;;;;;;;;;;;;;7.86;35.00;101671.00;4482708;31;33574;-63
2022/03/18 05:12:58;;;;;;;;;;;;;;;7.44;34.63;101668.78;4496398;31;32693;-63
2022/03/18 05:15:26;;;;;;;;;;;;;;;7.41;35.00;101671.56;4489469;31;34122;-64
2022/03/18 05:17:55;;;;;;;;;;;;;;;7.01;34.48;101670.09;4483938;31;34620;-63
2022/03/18 05:20:23;;;;;;;;;;;;;;;7.78;34.61;101676.59;4487700;31;33331;-63
2022/03/18 05:22:52;;;;;;;;;;;;;;;7.06;34.28;101678.81;4486945;31;34496;-64
2022/03/18 05:25:21;;;;;;;;;;;;;;;7.51;34.99;101685.47;4488357;31;33169;-63
2022/03/18 05:27:49;;;;;;;;;;;;;;;8.13;33.97;101685.25;4483485;31;32563;-63
2022/03/18 05:30:18;;;;;;;;;;;;;;;8.01;33.62;101685.63;4482598;31;32418;-63
2022/03/18 05:32:46;;;;;;;;;;;;;;;7.31;34.96;101689.62;4487711;31;34283;-62
2022/03/18 05:35:18;;;;;;;;;;;;;;;7.27;33.07;101689.75;4481025;31;34050;-63
2022/03/18 05:37:47;;;;;;;;;;;;;;;7.37;33.55;101693.88;4480379;31;35097;-63
2022/03/18 05:40:18;;;;;;;;;;;;;;;8.00;33.49;101694.56;4485686;31;33053;-63
2022/03/18 05:42:46;;;;;;;;;;;;;;;8.20;33.18;101700.09;4493417;31;34022;-62
2022/03/18 05:45:18;;;;;;;;;;;;;;;7.85;33.44;101701.25;4492755;31;34338;-65
2022/03/18 05:47:53;;;;;;;;;;;;;;;7.88;32.69;101698.50;4486924;31;35089;-63
2022/03/18 05:50:22;;;;;;;;;;;;;;;6.64;34.39;101699.53;4491862;31;33615;-62
2022/03/18 05:52:51;;;;;;;;;;;;;;;7.54;33.89;101707.56;4486000;31;34400;-62
2022/03/18 05:55:20;;;;;;;;;;;;;;;7.00;33.70;101709.19;4483057;31;34503;-62
2022/03/18 05:57:50;;;;;;;;;;;;;;;7.49;33.76;101712.16;4483288;31;33861;-62
2022/03/18 06:00:18;;;;;;;;;;;;;;;7.12;34.76;101720.38;4470718;31;33544;-63
2022/03/18 06:02:53;;;;;;;;;;;;;;;7.07;33.91;101723.19;4467298;32;35180;-64
2022/03/18 06:05:22;;;;;;;;;;;;;;;7.12;35.77;101718.56;4486633;31;34003;-63
2022/03/18 06:11:48;;;;;;;;;;;;;;;8.04;32.98;101728.22;4489447;31;35370;-62
2022/03/18 06:13:27;;;;;;;;;;;;;;;6.65;34.22;101733.25;4484708;31;34041;-63
2022/03/18 06:15:56;;;;;;;;;;;;;;;6.71;34.23;101728.63;4485182;31;33208;-63
2022/03/18 06:18:40;;;;;;;;;;;;;;;6.93;34.93;101736.91;4482354;31;35170;-64
2022/03/18 06:21:09;;;;;;;;;;;;;;;7.54;33.90;101738.66;4483094;31;33497;-64
2022/03/18 06:23:39;;;;;;;;;;;;;;;6.71;32.99;101738.41;4489463;31;35177;-63
2022/03/18 06:26:08;;;;;;;;;;;;;;;7.27;34.29;101740.38;4486208;31;33585;-63
2022/03/18 06:28:37;;;;;;;;;;;;;;;7.08;33.15;101748.00;4483917;31;33930;-62
2022/03/18 06:31:06;;;;;;;;;;;;;;;7.53;33.64;101745.78;4493595;31;33199;-62
2022/03/18 06:33:44;;;;;;;;;;;;;;;6.94;33.97;101754.59;4490091;31;33145;-61
2022/03/18 06:36:12;;;;;;;;;;;;;;;7.24;33.18;101754.66;4490185;31;35532;-61
2022/03/18 06:38:41;;;;;;;;;;;;;;;7.25;33.01;101753.72;4484524;31;35428;-61
2022/03/18 06:41:10;;;;;;;;;;;;;;;7.42;35.03;101758.56;4489106;31;33594;-63
2022/03/18 06:43:38;;;;;;;;;;;;;;;7.60;33.43;101762.47;4492811;31;35140;-63
2022/03/18 06:46:07;;;;;;;;;;;;;;;7.97;33.45;101758.66;4489636;31;33187;-62
2022/03/18 06:48:35;;;;;;;;;;;;;;;8.24;32.37;101763.09;4493215;31;34161;-64
2022/03/18 06:51:04;;;;;;;;;;;;;;;7.96;32.21;101764.91;4490016;31;34003;-61
2022/03/18 06:53:33;;;;;;;;;;;;;;;7.22;33.90;101765.34;4482896;31;34158;-61
2022/03/18 06:56:01;;;;;;;;;;;;;;;7.48;32.94;101771.72;4486877;31;33167;-61
2022/03/18 06:58:29;;;;;;;;;;;;;;;6.36;33.68;101765.94;4489671;31;32913;-63
2022/03/18 07:00:58;;;;;;;;;;;;;;;7.15;34.38;101777.06;4483988;31;32323;-61
2022/03/18 07:03:26;;;;;;;;;;;;;;;7.03;32.77;101780.13;4484786;31;35284;-61
2022/03/18 07:05:55;;;;;;;;;;;;;;;7.56;33.34;101784.81;4481870;31;35448;-62
2022/03/18 07:08:24;;;;;;;;;;;;;;;7.47;32.85;101775.28;4483670;31;34225;-62
2022/03/18 07:10:58;;;;;;;;;;;;;;;7.69;33.19;101780.84;4489179;31;33794;-61
2022/03/18 07:13:26;;;;;;;;;;;;;;;7.38;32.71;101787.09;4487540;31;33998;-62
2022/03/18 07:15:55;;;;;;;;;;;;;;;6.93;33.09;101783.91;4484534;31;33217;-62
2022/03/18 07:18:24;;;;;;;;;;;;;;;6.70;35.06;101789.84;4489541;31;34228;-64
2022/03/18 07:20:52;;;;;;;;;;;;;;;6.68;33.73;101791.72;4483254;31;33516;-61
2022/03/18 07:23:22;;;;;;;;;;;;;;;7.38;34.14;101796.84;4472937;31;34081;-62
2022/03/18 07:25:51;;;;;;;;;;;;;;;7.30;33.74;101794.44;4494263;31;34055;-61
2022/03/18 07:28:20;;;;;;;;;;;;;;;6.79;34.28;101791.41;4485962;31;34330;-64
2022/03/18 07:30:48;;;;;;;;;;;;;;;7.44;32.53;101807.34;4490720;31;34432;-65
2022/03/18 07:33:17;;;;;;;;;;;;;;;7.77;33.09;101812.59;4491981;31;34260;-61
2022/03/18 07:35:45;;;;;;;;;;;;;;;7.81;32.67;101811.59;4489747;31;34370;-62
2022/03/18 07:38:14;;;;;;;;;;;;;;;8.10;32.59;101816.91;4489866;31;35178;-62
2022/03/18 07:40:43;;;;;;;;;;;;;;;8.38;32.06;101808.91;4470190;31;1049156;-63
2022/03/18 07:43:11;;;;;;;;;;;;;;;8.19;32.25;101810.41;4492221;31;20016;-63
2022/03/18 07:45:41;;;;;;;;;;;;;;;7.44;32.83;101823.31;4485435;31;34377;-62
2022/03/18 07:48:10;;;;;;;;;;;;;;;7.56;33.00;101827.44;4487644;31;32668;-63
2022/03/18 07:50:39;;;;;;;;;;;;;;;7.94;32.13;101824.50;4484253;31;35284;-62
2022/03/18 07:53:08;;;;;;;;;;;;;;;7.44;33.51;101834.84;4484696;31;34151;-64
2022/03/18 07:55:38;;;;;;;;;;;;;;;8.34;31.70;101839.25;4482719;31;34009;-63
2022/03/18 07:58:06;;;;;;;;;;;;;;;8.23;31.85;101844.06;4488367;31;33948;-63
2022/03/18 08:00:35;;;;;;;;;;;;;;;8.21;32.58;101837.88;4491267;31;35300;-62
2022/03/18 08:03:04;;;;;;;;;;;;;;;7.78;32.78;101843.69;4489567;31;34591;-64
2022/03/18 08:05:33;;;;;;;;;;;;;;;8.57;31.70;101843.87;4483833;31;33981;-63
2022/03/18 08:08:02;;;;;;;;;;;;;;;8.61;32.27;101848.19;4488931;31;34400;-63
2022/03/18 08:10:31;;;;;;;;;;;;;;;8.69;32.30;101844.38;4481484;31;32563;-62
2022/03/18 08:12:59;;;;;;;;;;;;;;;8.77;31.13;101843.22;4484289;31;34767;-62
2022/03/18 08:15:28;;;;;;;;;;;;;;;8.57;31.03;101845.66;4481687;31;33747;-62
2022/03/18 08:17:57;;;;;;;;;;;;;;;8.86;31.34;101852.72;4486753;31;33581;-62
2022/03/18 08:20:26;;;;;;;;;;;;;;;8.75;32.19;101860.19;4484632;31;33344;-62
2022/03/18 08:22:54;;;;;;;;;;;;;;;7.38;32.23;101866.12;4493440;31;34502;-62
2022/03/18 08:25:24;;;;;;;;;;;;;;;8.05;32.01;101853.50;4483142;31;33882;-63
2022/03/18 08:27:52;;;;;;;;;;;;;;;8.66;31.78;101860.50;4488495;31;34609;-63
2022/03/18 08:30:21;;;;;;;;;;;;;;;8.71;31.41;101861.25;4485015;31;34292;-63
2022/03/18 08:32:49;;;;;;;;;;;;;;;9.21;31.09;101867.53;4485854;31;34171;-63
2022/03/18 08:35:18;;;;;;;;;;;;;;;9.14;31.11;101871.31;4482480;31;33960;-62
2022/03/18 08:37:56;;;;;;;;;;;;;;;9.26;30.47;101873.56;4485165;31;33399;-63
2022/03/18 08:40:25;;;;;;;;;;;;;;;9.32;30.98;101873.34;4489203;31;34368;-65
2022/03/18 08:42:54;;;;;;;;;;;;;;;8.84;32.56;101876.78;4487125;31;33287;-63
2022/03/18 08:45:23;;;;;;;;;;;;;;;8.44;33.58;101877.22;4490353;31;34281;-63
2022/03/18 08:47:53;;;;;;;;;;;;;;;8.57;32.46;101885.69;4483268;31;34378;-63
2022/03/18 08:50:21;;;;;;;;;;;;;;;8.72;33.00;101885.19;4481328;31;35785;-62
2022/03/18 08:52:52;;;;;;;;;;;;;;;8.74;32.88;101882.50;4480640;31;34970;-62
2022/03/18 08:55:20;;;;;;;;;;;;;;;8.94;32.97;101885.34;4489499;31;34177;-64
2022/03/18 08:57:48;;;;;;;;;;;;;;;8.93;33.36;101885.44;4482104;31;31979;-65
2022/03/18 09:00:17;;;;;;;;;;;;;;;8.81;33.08;101890.25;4487291;31;35293;-61
2022/03/18 09:02:47;;;;;;;;;;;;;;;8.99;32.14;101887.84;4490467;31;34348;-63
2022/03/18 09:05:16;;;;;;;;;;;;;;;9.50;31.00;101889.62;4484607;31;32810;-62
2022/03/18 09:07:46;;;;;;;;;;;;;;;9.45;31.51;101899.62;4482806;31;33263;-62
2022/03/18 09:10:15;;;;;;;;;;;;;;;9.61;32.92;101902.62;4483362;31;34108;-62
2022/03/18 09:12:43;;;;;;;;;;;;;;;10.43;31.26;101894.16;4480667;31;34177;-63
2022/03/18 09:15:12;;;;;;;;;;;;;;;10.66;30.59;101897.72;4485156;31;33918;-63
2022/03/18 09:17:41;;;;;;;;;;;;;;;10.87;29.91;101896.78;4485216;31;33622;-63
2022/03/18 09:20:10;;;;;;;;;;;;;;;10.65;31.10;101893.25;4488221;31;31797;-63
2022/03/18 09:22:39;;;;;;;;;;;;;;;10.29;30.73;101907.19;4496774;31;33666;-62
2022/03/18 09:25:08;;;;;;;;;;;;;;;10.68;30.67;101906.53;4483123;31;35651;-62
2022/03/18 09:27:37;;;;;;;;;;;;;;;10.65;31.81;101899.50;4486837;31;32337;-64
2022/03/18 09:30:10;;;;;;;;;;;;;;;10.87;30.64;101909.31;4490459;31;32978;-63
2022/03/18 09:32:40;;;;;;;;;;;;;;;10.19;31.57;101913.81;4484978;31;35425;-64
2022/03/18 09:35:10;;;;;;;;;;;;;;;10.77;31.10;101910.66;4492115;31;33827;-63
2022/03/18 09:37:48;;;;;;;;;;;;;;;10.67;31.67;101907.47;4485260;31;33335;-63
2022/03/18 09:40:29;;;;;;;;;;;;;;;11.16;31.53;101906.28;4483667;31;34421;-62
2022/03/18 09:43:28;;;;;;;;;;;;;;;10.45;32.57;101905.66;4482901;31;33095;-67
2022/03/18 09:45:59;;;;;;;;;;;;;;;11.16;32.72;101903.59;4487741;31;34570;-67
2022/03/18 09:48:53;;;;;;;;;;;;;;;9.52;34.15;101915.37;4468783;31;33552;-62
2022/03/18 09:51:23;;;;;;;;;;;;;;;11.19;32.58;101902.59;4491946;31;32196;-62
2022/03/18 09:54:30;;;;;;;;;;;;;;;11.84;32.02;101905.97;4486485;31;34964;-62
2022/03/18 09:57:09;;;;;;;;;;;;;;;12.27;32.27;101899.53;4485464;31;34802;-63
2022/03/18 09:59:47;;;;;;;;;;;;;;;12.60;30.84;101909.56;4492849;31;32597;-61
2022/03/18 10:02:26;;;;;;;;;;;;;;;11.90;31.26;101913.78;4497104;31;33391;-62
2022/03/18 10:05:14;;;;;;;;;;;;;;;12.12;32.05;101909.16;4485733;31;34603;-62
2022/03/18 10:07:56;;;;;;;;;;;;;;;12.68;31.64;101917.25;4488230;31;33852;-62
2022/03/18 10:10:31;;;;;;;;;;;;;;;13.33;30.80;101921.16;4485683;31;31987;-61
2022/03/18 10:13:08;;;;;;;;;;;;;;;13.31;30.73;101920.38;4473154;31;32949;-62
2022/03/18 10:15:43;;;;;;;;;;;;;;;13.07;31.36;101917.09;4486970;31;33298;-62
2022/03/18 10:18:19;;;;;;;;;;;;;;;12.54;33.44;101917.94;4487180;31;34331;-62
2022/03/18 10:20:57;;;;;;;;;;;;;;;12.31;33.48;101917.22;4485840;31;33274;-63
2022/03/18 10:23:31;;;;;;;;;;;;;;;13.16;32.55;101913.94;4478318;31;33380;-64
2022/03/18 10:26:07;;;;;;;;;;;;;;;13.52;32.09;101919.25;4489085;31;33232;-62
2022/03/18 10:28:52;;;;;;;;;;;;;;;13.46;32.16;101916.03;4483783;31;32949;-61
2022/03/18 10:31:30;;;;;;;;;;;;;;;13.05;32.45;101916.28;4475243;31;32466;-64
2022/03/18 10:37:06;;;;;;;;;;;;;;;13.40;34.31;101917.22;4495820;31;33065;-64
2022/03/18 10:39:46;;;;;;;;;;;;;;;13.95;33.36;101914.25;4490543;31;33022;-62
2022/03/18 10:42:20;;;;;;;;;;;;;;;13.50;31.88;101920.28;4483359;31;32471;-61
2022/03/18 10:44:54;;;;;;;;;;;;;;;13.54;32.61;101921.84;4481890;31;33266;-62
2022/03/18 10:47:36;;;;;;;;;;;;;;;12.38;34.16;101911.56;4482741;32;34222;-61
2022/03/18 10:50:26;;;;;;;;;;;;;;;12.18;35.07;101912.50;4495645;31;33426;-61
2022/03/18 10:53:03;;;;;;;;;;;;;;;12.07;34.87;101911.22;4495034;31;32182;-63
2022/03/18 10:55:43;;;;;;;;;;;;;;;12.41;34.58;101917.66;4483334;31;34064;-62
2022/03/18 10:58:29;;;;;;;;;;;;;;;12.18;34.83;101915.19;4488999;31;34395;-62
2022/03/18 11:01:09;;;;;;;;;;;;;;;12.54;34.53;101912.56;4491303;31;32778;-64
2022/03/18 11:03:42;;;;;;;;;;;;;;;12.73;33.48;101913.41;4477402;31;32010;-62
2022/03/18 11:06:18;;;;;;;;;;;;;;;12.72;34.56;101917.03;4480482;31;33002;-61
2022/03/18 11:08:55;;;;;;;;;;;;;;;12.95;33.64;101917.72;4489167;31;33148;-62
2022/03/18 11:11:34;;;;;;;;;;;;;;;12.43;34.12;101915.78;4474726;31;34132;-62
2022/03/18 11:14:20;;;;;;;;;;;;;;;12.76;33.74;101910.56;4475122;31;33557;-62
2022/03/18 11:16:53;;;;;;;;;;;;;;;11.54;35.76;101916.28;4478177;31;34157;-62
2022/03/18 11:19:31;;;;;;;;;;;;;;;11.35;36.40;101913.53;4488222;31;34381;-63
2022/03/18 11:22:08;;;;;;;;;;;;;;;11.62;35.73;101915.00;4496800;31;32782;-64
2022/03/18 11:24:47;;;;;;;;;;;;;;;11.97;35.26;101909.00;4475183;31;33122;-63
2022/03/18 11:27:19;;;;;;;;;;;;;;;11.79;36.17;101906.19;4475445;31;35759;-61
2022/03/18 11:30:10;;;;;;;;;;;;;;;11.79;36.72;101908.88;4485752;31;34303;-61
2022/03/18 11:32:41;;;;;;;;;;;;;;;12.38;35.33;101907.06;4490895;31;34083;-61
2022/03/18 11:35:12;;;;;;;;;;;;;;;11.85;36.71;101907.78;4489420;31;32132;-61
2022/03/18 11:38:03;;;;;;;;;;;;;;;12.49;35.26;101906.56;4483489;31;33129;-64
2022/03/18 11:41:08;;;;;;;;;;;;;;;12.38;35.81;101906.19;4486862;31;33071;-61
2022/03/18 11:43:42;;;;;;;;;;;;;;;12.39;35.99;101902.53;4471685;31;34202;-61
2022/03/18 11:46:13;;;;;;;;;;;;;;;12.30;36.09;101896.69;4486516;31;34246;-61
2022/03/18 11:48:55;;;;;;;;;;;;;;;12.91;35.35;101894.63;4483532;31;34067;-61
2022/03/18 11:51:32;;;;;;;;;;;;;;;12.61;35.59;101886.25;4489332;31;33332;-61
2022/03/18 11:54:16;;;;;;;;;;;;;;;13.39;34.37;101895.78;4489436;31;32891;-62
2022/03/18 11:56:50;;;;;;;;;;;;;;;12.73;35.51;101897.28;4485882;31;33686;-65
2022/03/18 11:59:36;;;;;;;;;;;;;;;12.52;36.26;101895.63;4490363;31;34068;-66
2022/03/18 12:02:09;;;;;;;;;;;;;;;12.11;36.87;101885.09;4486621;31;34101;-61
2022/03/18 12:04:48;;;;;;;;;;;;;;;12.68;36.08;101883.22;4479342;31;33142;-62
2022/03/18 12:07:18;;;;;;;;;;;;;;;12.99;35.53;101884.34;4485120;31;32234;-65
2022/03/18 12:09:46;;;;;;;;;;;;;;;12.87;35.60;101882.28;4486833;31;33655;-63
2022/03/18 12:12:14;;;;;;;;;;;;;;;13.66;34.36;101882.66;4488543;31;32478;-62
2022/03/18 12:14:42;;;;;;;;;;;;;;;13.45;34.48;101877.50;4483599;31;32988;-62
2022/03/18 12:17:10;;;;;;;;;;;;;;;13.79;34.09;101872.97;4487803;31;34162;-62
2022/03/18 12:19:49;;;;;;;;;;;;;;;13.87;33.60;101872.59;4494980;31;35154;-62
2022/03/18 12:22:17;;;;;;;;;;;;;;;14.23;33.50;101871.47;4486574;31;34386;-61
2022/03/18 12:24:46;;;;;;;;;;;;;;;14.15;33.51;101870.06;4483169;31;35068;-62
2022/03/18 12:27:17;;;;;;;;;;;;;;;14.36;33.09;101859.06;4486352;31;33006;-62
2022/03/18 12:29:45;;;;;;;;;;;;;;;14.82;32.99;101856.41;4489034;31;34095;-62
2022/03/18 12:32:13;;;;;;;;;;;;;;;14.65;32.79;101852.00;4490086;31;33423;-62
2022/03/18 12:34:47;;;;;;;;;;;;;;;14.75;32.25;101852.34;4490121;31;33636;-64
2022/03/18 12:37:17;;;;;;;;;;;;;;;15.29;31.20;101844.59;4473871;31;33291;-64
2022/03/18 12:39:45;;;;;;;;;;;;;;;15.63;30.93;101850.59;4472081;31;33896;-61
2022/03/18 12:42:12;;;;;;;;;;;;;;;15.57;30.98;101849.16;4488841;31;33419;-63
2022/03/18 12:44:46;;;;;;;;;;;;;;;16.09;30.35;101840.47;4489308;31;34484;-62
2022/03/18 12:47:14;;;;;;;;;;;;;;;16.05;30.57;101847.03;4487442;31;34397;-63
2022/03/18 12:49:42;;;;;;;;;;;;;;;15.49;31.61;101837.97;4471464;31;34119;-62
2022/03/18 12:52:13;;;;;;;;;;;;;;;15.96;30.63;101844.94;4487001;31;34851;-62
2022/03/18 12:55:00;;;;;;;;;;;;;;;15.56;31.17;101847.41;4482052;31;35005;-62
2022/03/18 12:57:28;;;;;;;;;;;;;;;16.01;30.24;101831.97;4479895;31;33269;-62
2022/03/18 12:59:57;;;;;;;;;;;;;;;16.19;30.00;101841.59;4475960;31;34001;-62
2022/03/18 13:02:45;;;;;;;;;;;;;;;15.78;30.48;101834.31;4490757;31;32952;-61
2022/03/18 13:05:15;;;;;;;;;;;;;;;14.78;32.45;101831.47;4486332;31;34430;-62
2022/03/18 13:07:42;;;;;;;;;;;;;;;15.73;31.25;101831.06;4491973;31;33330;-62
2022/03/18 13:10:12;;;;;;;;;;;;;;;16.39;30.30;101825.91;4483780;31;34177;-64
2022/03/18 13:12:40;;;;;;;;;;;;;;;16.65;29.72;101824.16;4488958;31;33821;-65
2022/03/18 13:15:17;;;;;;;;;;;;;;;16.39;29.83;101815.97;4486412;31;35265;-63